createdAt,value
2018-03-03T00:02:22.572Z,-0.40
2018-03-03T00:04:49.312Z,-0.40
2018-03-03T00:07:15.482Z,-0.30
2018-03-03T00:09:42.051Z,-0.30
2018-03-03T00:12:09.850Z,-0.30
2018-03-03T00:14:35.961Z,-0.30
2018-03-03T00:17:02.186Z,-0.30
2018-03-03T00:19:28.760Z,-0.40
2018-03-03T00:21:54.892Z,-0.30
2018-03-03T00:24:22.071Z,-0.30
2018-03-03T00:26:48.280Z,-0.40
2018-03-03T00:29:15.452Z,-0.40
2018-03-03T00:31:41.639Z,-0.60
2018-03-03T00:34:07.742Z,-0.40
2018-03-03T00:36:33.932Z,-0.40
2018-03-03T00:39:00.143Z,-0.50
2018-03-03T00:41:27.034Z,-0.50
2018-03-03T00:43:53.241Z,-0.60
2018-03-03T00:46:19.468Z,-0.40
2018-03-03T00:48:45.703Z,-0.50
2018-03-03T00:51:12.746Z,-0.40
2018-03-03T00:53:38.994Z,-0.40
2018-03-03T00:56:05.211Z,-0.40
2018-03-03T00:58:31.514Z,-0.30
2018-03-03T01:00:57.658Z,-0.30
2018-03-03T01:03:24.578Z,-0.40
2018-03-03T01:05:50.915Z,-0.30
2018-03-03T01:08:17.404Z,-0.30
2018-03-03T01:10:44.430Z,-0.50
2018-03-03T01:13:10.553Z,-0.50
2018-03-03T01:15:36.734Z,-0.40
2018-03-03T01:18:05.094Z,-0.40
2018-03-03T01:20:31.897Z,-0.40
2018-03-03T01:22:59.165Z,-0.40
2018-03-03T01:25:26.310Z,-0.50
2018-03-03T01:27:52.932Z,-0.50
2018-03-03T01:30:19.028Z,-0.40
2018-03-03T01:32:45.160Z,-0.40
2018-03-03T01:35:14.772Z,-0.50
2018-03-03T01:37:41.170Z,-0.50
2018-03-03T01:40:07.353Z,-0.40
2018-03-03T01:42:33.868Z,-0.40
2018-03-03T01:45:00.008Z,-0.40
2018-03-03T01:47:26.510Z,-0.50
2018-03-03T01:49:54.747Z,-0.40
2018-03-03T01:52:20.893Z,-0.50
2018-03-03T01:54:47.099Z,-0.60
2018-03-03T01:57:14.019Z,-0.50
2018-03-03T01:59:41.060Z,-0.60
2018-03-03T02:02:07.186Z,-0.50
2018-03-03T02:04:33.957Z,-0.50
2018-03-03T02:07:00.670Z,-0.50
2018-03-03T02:09:27.075Z,-0.50
2018-03-03T02:11:54.428Z,-0.60
2018-03-03T02:14:20.910Z,-0.70
2018-03-03T02:16:47.152Z,-0.60
2018-03-03T02:19:13.343Z,-0.50
2018-03-03T02:21:39.434Z,-0.60
2018-03-03T02:24:05.571Z,-0.60
2018-03-03T02:26:31.763Z,-0.70
2018-03-03T02:28:58.299Z,-0.60
2018-03-03T02:31:24.473Z,-0.60
2018-03-03T02:33:51.871Z,-0.50
2018-03-03T02:36:19.341Z,-0.50
2018-03-03T02:38:46.412Z,-0.60
2018-03-03T02:41:12.713Z,-0.60
2018-03-03T02:43:40.036Z,-0.60
2018-03-03T02:46:06.395Z,-0.70
2018-03-03T02:48:32.703Z,-0.70
2018-03-03T02:50:58.891Z,-0.70
2018-03-03T02:53:25.892Z,-0.70
2018-03-03T02:55:52.111Z,-0.70
2018-03-03T02:58:18.359Z,-0.60
2018-03-03T03:00:46.008Z,-0.70
2018-03-03T03:03:12.136Z,-0.80
2018-03-03T03:05:38.645Z,-0.80
2018-03-03T03:08:05.851Z,-0.90
2018-03-03T03:10:32.106Z,-0.90
2018-03-03T03:13:00.396Z,-0.90
2018-03-03T03:15:26.543Z,-0.90
2018-03-03T03:17:53.919Z,-0.80
2018-03-03T03:20:20.587Z,-0.90
2018-03-03T03:22:46.874Z,-0.90
2018-03-03T03:25:13.085Z,-1.10
2018-03-03T03:27:40.341Z,-1.10
2018-03-03T03:30:06.616Z,-1.10
2018-03-03T03:32:33.590Z,-1.10
2018-03-03T03:34:59.836Z,-1.10
2018-03-03T03:37:27.510Z,-1.10
2018-03-03T03:39:53.657Z,-1.10
2018-03-03T03:42:20.060Z,-1.00
2018-03-03T03:44:46.286Z,-0.90
2018-03-03T03:47:12.832Z,-1.00
2018-03-03T03:49:39.976Z,-0.90
2018-03-03T03:52:06.205Z,-0.80
2018-03-03T03:54:33.414Z,-0.90
2018-03-03T03:56:59.675Z,-0.90
2018-03-03T03:59:26.794Z,-0.80
2018-03-03T04:01:53.044Z,-0.90
2018-03-03T04:04:19.255Z,-0.90
2018-03-03T04:06:46.110Z,-0.90
2018-03-03T04:09:12.318Z,-0.90
2018-03-03T04:11:38.521Z,-0.90
2018-03-03T04:14:05.587Z,-0.90
2018-03-03T04:16:32.526Z,-0.90
2018-03-03T04:18:59.708Z,-0.80
2018-03-03T04:21:25.866Z,-0.80
2018-03-03T04:23:52.102Z,-0.70
2018-03-03T04:26:18.285Z,-0.80
2018-03-03T04:28:45.204Z,-0.90
2018-03-03T04:31:11.314Z,-0.90
2018-03-03T04:33:37.468Z,-0.90
2018-03-03T04:36:03.678Z,-0.90
2018-03-03T04:38:30.267Z,-0.90
2018-03-03T04:40:56.369Z,-0.80
2018-03-03T04:43:22.894Z,-0.90
2018-03-03T04:45:49.531Z,-1.00
2018-03-03T04:48:15.758Z,-1.00
2018-03-03T04:50:42.766Z,-1.00
2018-03-03T04:53:08.894Z,-1.00
2018-03-03T04:55:35.369Z,-1.00
2018-03-03T04:58:01.490Z,-1.00
2018-03-03T05:00:34.159Z,-1.00
2018-03-03T05:03:21.250Z,-1.00
2018-03-03T05:05:53.539Z,-1.00
2018-03-03T05:11:18.169Z,-1.30
2018-03-03T05:13:44.463Z,-1.10
2018-03-03T05:16:20.452Z,-1.00
2018-03-03T05:18:52.957Z,-1.00
2018-03-03T05:21:25.297Z,-1.00
2018-03-03T05:23:57.961Z,-1.10
2018-03-03T05:26:30.866Z,-1.10
2018-03-03T05:29:18.470Z,-1.10
2018-03-03T05:31:50.714Z,-1.20
2018-03-03T05:34:27.627Z,-1.30
2018-03-03T05:36:59.989Z,-1.30
2018-03-03T05:39:33.347Z,-1.30
2018-03-03T05:45:16.271Z,-1.40
2018-03-03T05:47:48.664Z,-1.40
2018-03-03T05:50:15.862Z,-1.20
2018-03-03T05:52:48.192Z,-1.10
2018-03-03T05:55:15.174Z,-1.10
2018-03-03T05:58:00.209Z,-1.10
2018-03-03T06:00:45.721Z,-1.00
2018-03-03T06:03:13.002Z,-1.00
2018-03-03T06:05:59.183Z,-1.00
2018-03-03T06:08:41.261Z,-1.10
2018-03-03T06:11:09.279Z,-1.10
2018-03-03T06:13:36.183Z,-1.10
2018-03-03T06:16:02.289Z,-1.10
2018-03-03T06:18:29.178Z,-1.10
2018-03-03T06:20:55.247Z,-1.10
2018-03-03T06:23:21.466Z,-1.00
2018-03-03T06:25:52.034Z,-1.10
2018-03-03T06:28:19.039Z,-1.10
2018-03-03T06:30:45.327Z,-1.10
2018-03-03T06:33:12.364Z,-1.10
2018-03-03T06:35:38.685Z,-1.20
2018-03-03T06:38:04.868Z,-1.20
2018-03-03T06:40:31.057Z,-1.20
2018-03-03T06:42:57.230Z,-1.20
2018-03-03T06:45:23.432Z,-1.20
2018-03-03T06:47:49.790Z,-1.00
2018-03-03T06:50:16.977Z,-1.00
2018-03-03T06:52:52.868Z,-1.00
2018-03-03T06:55:19.772Z,-0.90
2018-03-03T06:57:46.062Z,-0.80
2018-03-03T07:00:12.292Z,-0.90
2018-03-03T07:02:38.461Z,-0.90
2018-03-03T07:05:05.512Z,-0.90
2018-03-03T07:07:31.679Z,-0.80
2018-03-03T07:09:57.814Z,-0.80
2018-03-03T07:12:24.139Z,-0.70
2018-03-03T07:14:53.121Z,-0.80
2018-03-03T07:17:19.252Z,-0.80
2018-03-03T07:19:45.361Z,-0.80
2018-03-03T07:22:11.787Z,-0.80
2018-03-03T07:24:38.788Z,-0.70
2018-03-03T07:27:05.235Z,-0.80
2018-03-03T07:29:31.799Z,-0.60
2018-03-03T07:31:57.905Z,-0.60
2018-03-03T07:34:24.072Z,-0.60
2018-03-03T07:36:50.255Z,-0.50
2018-03-03T07:39:16.406Z,-0.50
2018-03-03T07:41:42.514Z,-0.60
2018-03-03T07:44:08.847Z,-0.70
2018-03-03T07:46:35.075Z,-0.60
2018-03-03T07:49:01.231Z,-0.60
2018-03-03T07:51:27.630Z,-0.60
2018-03-03T07:53:53.831Z,-0.60
2018-03-03T07:56:20.017Z,-0.50
2018-03-03T07:58:48.909Z,-0.60
2018-03-03T08:01:15.790Z,-0.50
2018-03-03T08:03:41.973Z,-0.50
2018-03-03T08:06:08.860Z,-0.50
2018-03-03T08:08:35.108Z,-0.50
2018-03-03T08:11:01.330Z,-0.40
2018-03-03T08:13:28.043Z,-0.30
2018-03-03T08:15:54.344Z,-0.20
2018-03-03T08:18:20.859Z,-0.20
2018-03-03T08:20:48.025Z,-0.10
2018-03-03T08:23:15.128Z,-0.30
2018-03-03T08:25:42.394Z,-0.50
2018-03-03T08:28:08.532Z,-0.50
2018-03-03T08:30:34.786Z,-0.40
2018-03-03T08:33:00.904Z,-0.40
2018-03-03T08:35:27.937Z,-0.40
2018-03-03T08:37:54.221Z,-0.40
2018-03-03T08:40:23.382Z,-0.30
2018-03-03T08:42:50.510Z,-0.20
2018-03-03T08:45:16.775Z,-0.20
2018-03-03T08:47:43.246Z,-0.10
2018-03-03T08:50:09.528Z,0.00
2018-03-03T08:52:35.707Z,0.10
2018-03-03T08:55:03.896Z,0.20
2018-03-03T08:57:30.082Z,0.30
2018-03-03T08:59:56.972Z,0.10
2018-03-03T09:02:24.028Z,0.10
2018-03-03T09:04:57.103Z,0.10
2018-03-03T09:07:23.239Z,0.20
2018-03-03T09:09:49.905Z,0.30
2018-03-03T09:12:16.071Z,0.40
2018-03-03T09:14:43.232Z,0.40
2018-03-03T09:17:09.336Z,0.50
2018-03-03T09:19:35.581Z,0.30
2018-03-03T09:22:01.837Z,0.30
2018-03-03T09:24:28.003Z,0.50
2018-03-03T09:26:54.641Z,0.70
2018-03-03T09:29:21.380Z,0.80
2018-03-03T09:31:48.727Z,0.80
2018-03-03T09:34:15.546Z,0.90
2018-03-03T09:36:43.091Z,1.00
2018-03-03T09:39:09.330Z,0.90
2018-03-03T09:41:35.710Z,1.00
2018-03-03T09:44:01.816Z,1.00
2018-03-03T09:46:28.599Z,1.10
2018-03-03T09:48:54.752Z,1.00
2018-03-03T09:51:21.556Z,1.10
2018-03-03T09:53:47.961Z,1.20
2018-03-03T09:56:14.117Z,1.20
2018-03-03T09:58:40.912Z,1.20
2018-03-03T10:01:07.367Z,1.20
2018-03-03T10:03:33.456Z,1.20
2018-03-03T10:05:59.638Z,1.30
2018-03-03T10:08:26.540Z,1.30
2018-03-03T10:10:52.834Z,1.40
2018-03-03T10:13:19.132Z,1.30
2018-03-03T10:15:45.369Z,1.20
2018-03-03T10:18:11.646Z,1.20
2018-03-03T10:20:38.503Z,1.20
2018-03-03T10:23:06.449Z,1.20
2018-03-03T10:25:32.658Z,1.20
2018-03-03T10:27:58.858Z,1.40
2018-03-03T10:30:25.063Z,1.50
2018-03-03T10:32:52.037Z,1.50
2018-03-03T10:35:18.255Z,1.60
2018-03-03T10:37:46.909Z,1.60
2018-03-03T10:40:14.903Z,1.50
2018-03-03T10:42:41.173Z,1.40
2018-03-03T10:45:08.135Z,1.30
2018-03-03T10:47:34.607Z,1.20
2018-03-03T10:50:01.515Z,1.20
2018-03-03T10:52:28.413Z,1.00
2018-03-03T10:54:54.619Z,0.90
2018-03-03T10:57:21.327Z,1.00
2018-03-03T10:59:47.504Z,1.10
2018-03-03T11:02:13.746Z,1.30
2018-03-03T11:04:40.217Z,1.20
2018-03-03T11:07:06.409Z,1.20
2018-03-03T11:09:32.592Z,1.20
2018-03-03T11:11:58.896Z,1.10
2018-03-03T11:14:25.854Z,0.90
2018-03-03T11:16:52.138Z,0.90
2018-03-03T11:19:18.272Z,1.20
2018-03-03T11:21:44.606Z,1.40
2018-03-03T11:24:11.478Z,1.50
2018-03-03T11:26:38.536Z,1.70
2018-03-03T11:29:04.760Z,1.80
2018-03-03T11:31:30.897Z,1.80
2018-03-03T11:33:58.117Z,1.80
2018-03-03T11:36:25.193Z,2.00
2018-03-03T11:38:51.374Z,1.90
2018-03-03T11:41:17.721Z,1.90
2018-03-03T11:43:45.570Z,1.80
2018-03-03T11:46:12.524Z,1.90
2018-03-03T11:48:39.978Z,1.80
2018-03-03T11:51:06.123Z,2.00
2018-03-03T11:53:32.421Z,1.80
2018-03-03T11:55:58.950Z,1.70
2018-03-03T11:58:25.955Z,1.60
2018-03-03T12:00:52.081Z,1.60
2018-03-03T12:03:19.101Z,1.70
2018-03-03T12:05:45.404Z,1.90
2018-03-03T12:08:12.458Z,2.00
2018-03-03T12:10:38.677Z,1.80
2018-03-03T12:13:06.805Z,2.00
2018-03-03T12:15:33.040Z,2.00
2018-03-03T12:17:59.205Z,1.90
2018-03-03T12:20:26.181Z,1.90
2018-03-03T12:22:52.308Z,2.00
2018-03-03T12:25:19.457Z,2.10
2018-03-03T12:27:46.501Z,2.10
2018-03-03T12:30:12.627Z,2.30
2018-03-03T12:32:38.743Z,2.30
2018-03-03T12:35:04.902Z,2.30
2018-03-03T12:37:31.073Z,2.30
2018-03-03T12:39:58.887Z,2.30
2018-03-03T12:42:25.008Z,2.30
2018-03-03T12:44:51.218Z,2.40
2018-03-03T12:47:17.670Z,2.30
2018-03-03T12:49:43.814Z,2.50
2018-03-03T12:52:09.904Z,2.30
2018-03-03T12:54:36.654Z,2.40
2018-03-03T12:57:02.740Z,2.60
2018-03-03T12:59:30.019Z,3.30
2018-03-03T13:01:57.681Z,3.20
2018-03-03T13:04:23.880Z,3.30
2018-03-03T13:06:50.442Z,3.20
2018-03-03T13:09:16.721Z,2.90
2018-03-03T13:11:42.964Z,2.80
2018-03-03T13:14:09.506Z,2.80
2018-03-03T13:16:35.725Z,3.10
2018-03-03T13:19:02.912Z,3.30
2018-03-03T13:21:28.964Z,3.30
2018-03-03T13:23:56.393Z,3.40
2018-03-03T13:26:23.895Z,3.30
2018-03-03T13:28:51.531Z,3.30
2018-03-03T13:31:18.133Z,3.30
2018-03-03T13:33:44.213Z,3.30
2018-03-03T13:36:10.932Z,3.20
2018-03-03T13:38:37.454Z,3.20
2018-03-03T13:41:04.325Z,3.10
2018-03-03T13:43:31.853Z,3.00
2018-03-03T13:45:58.032Z,3.00
2018-03-03T13:48:25.933Z,2.70
2018-03-03T13:50:53.379Z,2.70
2018-03-03T13:53:20.266Z,2.80
2018-03-03T13:55:48.483Z,2.90
2018-03-03T13:58:15.617Z,2.90
2018-03-03T14:00:42.115Z,3.00
2018-03-03T14:03:08.599Z,2.80
2018-03-03T14:05:35.801Z,2.70
2018-03-03T14:08:02.216Z,2.70
2018-03-03T14:10:28.416Z,2.60
2018-03-03T14:12:54.623Z,2.60
2018-03-03T14:15:22.583Z,2.70
2018-03-03T14:17:48.828Z,2.70
2018-03-03T14:20:16.031Z,2.60
2018-03-03T14:22:46.149Z,2.60
2018-03-03T14:25:12.981Z,2.60
2018-03-03T14:27:39.973Z,2.70
2018-03-03T14:30:07.746Z,2.70
2018-03-03T14:32:35.333Z,2.60
2018-03-03T14:35:04.382Z,2.60
2018-03-03T14:37:30.619Z,2.60
2018-03-03T14:39:56.636Z,2.70
2018-03-03T14:42:23.393Z,2.70
2018-03-03T14:44:50.064Z,2.60
2018-03-03T14:47:16.247Z,2.60
2018-03-03T14:49:42.429Z,2.60
2018-03-03T14:52:08.606Z,2.70
2018-03-03T14:54:34.767Z,2.90
2018-03-03T14:57:00.919Z,3.10
2018-03-03T14:59:27.077Z,3.20
2018-03-03T15:01:53.956Z,3.10
2018-03-03T15:04:20.137Z,3.00
2018-03-03T15:06:46.242Z,3.10
2018-03-03T15:09:12.827Z,3.10
2018-03-03T15:11:39.174Z,3.10
2018-03-03T15:14:05.894Z,3.10
2018-03-03T15:16:32.107Z,3.10
2018-03-03T15:18:58.505Z,3.00
2018-03-03T15:21:25.357Z,3.10
2018-03-03T15:23:51.465Z,3.00
2018-03-03T15:26:18.057Z,3.20
2018-03-03T15:28:44.263Z,3.20
2018-03-03T15:31:10.510Z,3.30
2018-03-03T15:33:37.446Z,3.30
2018-03-03T15:36:03.715Z,3.20
2018-03-03T15:38:29.810Z,3.30
2018-03-03T15:40:55.985Z,3.40
2018-03-03T15:43:22.271Z,3.50
2018-03-03T15:45:49.516Z,3.50
2018-03-03T15:48:16.603Z,3.40
2018-03-03T15:50:42.921Z,3.40
2018-03-03T15:53:09.105Z,3.40
2018-03-03T15:55:35.830Z,3.50
2018-03-03T15:58:02.331Z,3.60
2018-03-03T16:00:28.877Z,3.60
2018-03-03T16:02:56.157Z,3.50
2018-03-03T16:05:23.957Z,3.60
2018-03-03T16:07:51.253Z,3.50
2018-03-03T16:10:17.526Z,3.60
2018-03-03T16:12:43.679Z,3.60
2018-03-03T16:15:09.831Z,3.70
2018-03-03T16:17:36.624Z,3.70
2018-03-03T16:20:04.526Z,3.70
2018-03-03T16:22:30.820Z,3.70
2018-03-03T16:24:57.812Z,3.70
2018-03-03T16:27:24.540Z,3.50
2018-03-03T16:29:51.307Z,3.60
2018-03-03T16:32:17.555Z,3.60
2018-03-03T16:34:44.504Z,3.60
2018-03-03T16:37:11.735Z,3.60
2018-03-03T16:39:37.908Z,3.70
2018-03-03T16:42:04.363Z,3.70
2018-03-03T16:44:30.583Z,3.70
2018-03-03T16:46:57.005Z,3.70
2018-03-03T16:49:23.951Z,3.70
2018-03-03T16:51:50.202Z,3.60
2018-03-03T16:54:16.718Z,3.40
2018-03-03T16:56:42.928Z,3.20
2018-03-03T16:59:11.006Z,2.80
2018-03-03T17:01:37.209Z,2.80
2018-03-03T17:04:03.583Z,2.80
2018-03-03T17:06:29.838Z,2.80
2018-03-03T17:08:56.339Z,2.80
2018-03-03T17:11:22.533Z,2.70
2018-03-03T17:13:50.991Z,2.80
2018-03-03T17:16:17.177Z,2.70
2018-03-03T17:18:43.861Z,2.70
2018-03-03T17:21:09.948Z,2.60
2018-03-03T17:23:36.215Z,2.50
2018-03-03T17:26:04.250Z,2.50
2018-03-03T17:28:30.682Z,2.40
2018-03-03T17:30:57.630Z,2.50
2018-03-03T17:33:26.022Z,2.40
2018-03-03T17:35:52.851Z,2.20
2018-03-03T17:38:20.368Z,2.20
2018-03-03T17:40:46.467Z,2.20
2018-03-03T17:43:13.260Z,2.20
2018-03-03T17:45:39.435Z,2.30
2018-03-03T17:48:07.091Z,2.30
2018-03-03T17:50:33.241Z,2.20
2018-03-03T17:52:59.512Z,2.30
2018-03-03T17:55:26.383Z,2.30
2018-03-03T17:57:55.464Z,2.20
2018-03-03T18:00:23.352Z,2.20
2018-03-03T18:02:49.608Z,2.10
2018-03-03T18:05:15.679Z,2.10
2018-03-03T18:07:42.218Z,2.20
2018-03-03T18:10:09.385Z,2.10
2018-03-03T18:12:35.450Z,2.10
2018-03-03T18:15:01.559Z,1.90
2018-03-03T18:17:28.760Z,2.00
2018-03-03T18:19:54.885Z,1.90
2018-03-03T18:22:21.880Z,1.90
2018-03-03T18:24:48.670Z,2.00
2018-03-03T18:27:14.799Z,2.00
2018-03-03T18:29:40.921Z,2.00
2018-03-03T18:32:07.884Z,1.90
2018-03-03T18:34:33.925Z,1.90
2018-03-03T18:37:00.137Z,1.80
2018-03-03T18:39:26.523Z,1.90
2018-03-03T18:41:53.346Z,1.80
2018-03-03T18:44:19.870Z,1.80
2018-03-03T18:46:46.058Z,1.70
2018-03-03T18:49:12.188Z,1.70
2018-03-03T18:51:38.333Z,1.70
2018-03-03T18:54:05.571Z,1.70
2018-03-03T18:56:32.161Z,1.70
2018-03-03T18:58:58.385Z,1.90
2018-03-03T19:01:25.572Z,1.80
2018-03-03T19:03:52.014Z,1.60
2018-03-03T19:06:18.848Z,1.70
2018-03-03T19:08:45.864Z,1.70
2018-03-03T19:11:12.761Z,1.80
2018-03-03T19:13:39.725Z,1.80
2018-03-03T19:16:08.279Z,1.80
2018-03-03T19:18:35.944Z,1.80
2018-03-03T19:21:02.431Z,1.90
2018-03-03T19:23:28.747Z,2.00
2018-03-03T19:25:54.883Z,2.00
2018-03-03T19:28:23.205Z,2.10
2018-03-03T19:30:49.834Z,2.10
2018-03-03T19:33:19.055Z,2.00
2018-03-03T19:35:45.335Z,2.00
2018-03-03T19:38:11.508Z,2.00
2018-03-03T19:40:37.762Z,2.00
2018-03-03T19:43:04.692Z,1.90
2018-03-03T19:45:30.780Z,1.90
2018-03-03T19:47:57.370Z,2.00
2018-03-03T19:50:23.520Z,2.00
2018-03-03T19:52:49.676Z,2.10
2018-03-03T19:55:16.029Z,2.10
2018-03-03T19:57:43.154Z,2.10
2018-03-03T20:00:09.583Z,2.10
2018-03-03T20:02:36.985Z,2.10
2018-03-03T20:05:03.167Z,2.00
2018-03-03T20:07:30.035Z,2.10
2018-03-03T20:09:56.167Z,2.10
2018-03-03T20:12:22.272Z,2.00
2018-03-03T20:14:49.099Z,2.10
2018-03-03T20:17:15.144Z,2.00
2018-03-03T20:19:42.291Z,2.10
2018-03-03T20:22:08.368Z,2.10
2018-03-03T20:24:34.524Z,2.00
2018-03-03T20:27:00.618Z,2.10
2018-03-03T20:29:27.634Z,2.10
2018-03-03T20:31:53.707Z,2.00
2018-03-03T20:34:19.975Z,1.90
2018-03-03T20:36:46.174Z,1.90
2018-03-03T20:39:12.995Z,2.00
2018-03-03T20:41:39.824Z,1.90
2018-03-03T20:44:05.967Z,1.90
2018-03-03T20:46:32.598Z,2.10
2018-03-03T20:48:59.562Z,2.00
2018-03-03T20:51:26.578Z,2.00
2018-03-03T20:53:53.484Z,1.90
2018-03-03T20:56:20.163Z,2.00
2018-03-03T20:58:46.345Z,2.10
2018-03-03T21:01:15.026Z,2.10
2018-03-03T21:03:42.782Z,2.10
2018-03-03T21:06:09.033Z,2.10
2018-03-03T21:08:35.972Z,2.00
2018-03-03T21:11:03.793Z,1.90
2018-03-03T21:13:30.676Z,1.80
2018-03-03T21:15:57.052Z,1.80
2018-03-03T21:18:24.098Z,1.90
2018-03-03T21:23:22.451Z,1.90
2018-03-03T21:25:49.040Z,1.90
2018-03-03T21:28:15.322Z,1.90
2018-03-03T21:30:41.903Z,1.90
2018-03-03T21:33:08.749Z,1.90
2018-03-03T21:35:36.919Z,2.00
2018-03-03T21:38:03.798Z,2.00
2018-03-03T21:40:30.263Z,2.00
2018-03-03T21:42:58.159Z,2.10
2018-03-03T21:45:24.256Z,2.20
2018-03-03T21:47:50.890Z,2.30
2018-03-03T21:50:18.574Z,2.30
2018-03-03T21:52:44.731Z,2.30
2018-03-03T21:55:11.336Z,2.30
2018-03-03T21:57:38.702Z,2.20
2018-03-03T22:00:06.359Z,2.20
2018-03-03T22:02:33.442Z,2.20
2018-03-03T22:04:59.676Z,2.10
2018-03-03T22:07:26.400Z,2.10
2018-03-03T22:09:53.314Z,2.20
2018-03-03T22:12:19.521Z,2.20
2018-03-03T22:14:45.654Z,2.30
2018-03-03T22:17:12.654Z,2.20
2018-03-03T22:19:38.882Z,2.20
2018-03-03T22:22:06.027Z,2.10
2018-03-03T22:24:35.746Z,2.20
2018-03-03T22:27:02.224Z,2.20
2018-03-03T22:29:29.068Z,2.20
2018-03-03T22:31:56.390Z,2.20
2018-03-03T22:34:22.665Z,2.10
2018-03-03T22:36:48.803Z,2.10
2018-03-03T22:39:15.445Z,2.10
2018-03-03T22:41:41.535Z,2.10
2018-03-03T22:44:07.898Z,2.20
2018-03-03T22:46:34.046Z,2.10
2018-03-03T22:49:01.644Z,2.00
2018-03-03T22:51:28.031Z,2.00
2018-03-03T22:53:59.276Z,1.90
2018-03-03T22:56:25.396Z,1.90
2018-03-03T22:58:52.654Z,1.90
2018-03-03T23:01:18.751Z,1.90
2018-03-03T23:03:44.914Z,2.00
2018-03-03T23:06:12.779Z,2.10
2018-03-03T23:08:39.680Z,2.10
2018-03-03T23:11:06.012Z,2.00
2018-03-03T23:13:32.426Z,1.90
2018-03-03T23:15:58.716Z,1.70
2018-03-03T23:18:25.928Z,1.70
2018-03-03T23:20:52.593Z,1.60
2018-03-03T23:23:18.972Z,1.70
2018-03-03T23:25:45.090Z,1.80
2018-03-03T23:28:12.663Z,1.90
2018-03-03T23:30:38.743Z,1.80
2018-03-03T23:33:10.348Z,1.80
2018-03-03T23:35:37.057Z,1.90
2018-03-03T23:38:04.302Z,2.00
2018-03-03T23:40:30.396Z,1.90
2018-03-03T23:42:57.582Z,1.80
2018-03-03T23:45:23.740Z,1.80
2018-03-03T23:47:49.918Z,1.80
2018-03-03T23:50:18.087Z,1.90
2018-03-03T23:52:44.170Z,1.80
2018-03-03T23:55:10.327Z,1.80
2018-03-03T23:57:37.596Z,1.80
